sensor_id;sensor_type;location;lat;lon;timestamp;pressure;altitude;pressure_sealevel;temperature;humidity
74778;BME280;63298;53.164;8.610;2023-03-14T00:03:35;98919.31;;;11.73;70.09
74778;BME280;63298;53.164;8.610;2023-03-14T00:06:04;98917.66;;;11.66;70.50
74778;BME280;63298;53.164;8.610;2023-03-14T00:08:30;98925.34;;;11.69;70.36
74778;BME280;63298;53.164;8.610;2023-03-14T00:10:55;98916.28;;;11.69;70.04
74778;BME280;63298;53.164;8.610;2023-03-14T00:13:21;98910.44;;;11.70;70.06
74778;BME280;63298;53.164;8.610;2023-03-14T00:15:46;98907.69;;;11.70;70.13
74778;BME280;63298;53.164;8.610;2023-03-14T00:18:11;98912.66;;;11.74;70.14
74778;BME280;63298;53.164;8.610;2023-03-14T00:20:37;98902.44;;;11.74;70.42
74778;BME280;63298;53.164;8.610;2023-03-14T00:23:02;98908.25;;;11.73;70.15
74778;BME280;63298;53.164;8.610;2023-03-14T00:25:27;98911.25;;;11.71;70.08
74778;BME280;63298;53.164;8.610;2023-03-14T00:27:53;98899.09;;;11.72;70.14
74778;BME280;63298;53.164;8.610;2023-03-14T00:30:18;98905.44;;;11.78;70.17
74778;BME280;63298;53.164;8.610;2023-03-14T00:32:43;98899.09;;;11.77;70.48
74778;BME280;63298;53.164;8.610;2023-03-14T00:35:09;98898.50;;;11.80;70.35
74778;BME280;63298;53.164;8.610;2023-03-14T00:37:34;98906.72;;;11.85;70.07
74778;BME280;63298;53.164;8.610;2023-03-14T00:39:59;98907.03;;;11.84;70.07
74778;BME280;63298;53.164;8.610;2023-03-14T00:42:25;98914.50;;;11.83;70.09
74778;BME280;63298;53.164;8.610;2023-03-14T00:44:50;98916.13;;;11.84;70.29
74778;BME280;63298;53.164;8.610;2023-03-14T00:47:15;98915.56;;;11.87;70.41
74778;BME280;63298;53.164;8.610;2023-03-14T00:49:41;98907.31;;;11.82;70.30
74778;BME280;63298;53.164;8.610;2023-03-14T00:52:06;98912.31;;;11.80;70.40
74778;BME280;63298;53.164;8.610;2023-03-14T00:54:32;98915.84;;;11.86;70.72
74778;BME280;63298;53.164;8.610;2023-03-14T00:56:57;98902.69;;;11.78;70.71
74778;BME280;63298;53.164;8.610;2023-03-14T00:59:22;98902.63;;;11.83;70.72
74778;BME280;63298;53.164;8.610;2023-03-14T01:01:48;98883.34;;;11.78;70.76
74778;BME280;63298;53.164;8.610;2023-03-14T01:04:13;98880.56;;;11.78;70.68
74778;BME280;63298;53.164;8.610;2023-03-14T01:06:39;98866.25;;;11.70;71.30
74778;BME280;63298;53.164;8.610;2023-03-14T01:09:05;98868.41;;;11.79;71.01
74778;BME280;63298;53.164;8.610;2023-03-14T01:11:32;98878.03;;;11.81;70.65
74778;BME280;63298;53.164;8.610;2023-03-14T01:13:59;98870.03;;;11.80;71.11
74778;BME280;63298;53.164;8.610;2023-03-14T01:16:26;98865.66;;;11.79;71.28
74778;BME280;63298;53.164;8.610;2023-03-14T01:18:52;98852.16;;;11.72;71.40
74778;BME280;63298;53.164;8.610;2023-03-14T01:21:20;98859.59;;;11.77;71.19
74778;BME280;63298;53.164;8.610;2023-03-14T01:23:46;98838.09;;;11.74;71.41
74778;BME280;63298;53.164;8.610;2023-03-14T01:26:14;98830.63;;;11.74;71.88
74778;BME280;63298;53.164;8.610;2023-03-14T01:28:40;98816.81;;;11.74;71.78
74778;BME280;63298;53.164;8.610;2023-03-14T01:31:07;98807.97;;;11.72;72.08
74778;BME280;63298;53.164;8.610;2023-03-14T01:33:33;98810.47;;;11.74;72.12
74778;BME280;63298;53.164;8.610;2023-03-14T01:35:58;98814.34;;;11.73;72.20
74778;BME280;63298;53.164;8.610;2023-03-14T01:38:24;98827.88;;;11.74;72.52
74778;BME280;63298;53.164;8.610;2023-03-14T01:40:49;98826.47;;;11.72;73.44
74778;BME280;63298;53.164;8.610;2023-03-14T01:43:17;98831.97;;;11.77;73.36
74778;BME280;63298;53.164;8.610;2023-03-14T01:48:24;98810.41;;;11.79;73.15
74778;BME280;63298;53.164;8.610;2023-03-14T01:50:50;98816.16;;;11.82;73.15
74778;BME280;63298;53.164;8.610;2023-03-14T01:53:16;98809.50;;;11.83;73.70
74778;BME280;63298;53.164;8.610;2023-03-14T01:55:42;98794.34;;;11.81;73.33
74778;BME280;63298;53.164;8.610;2023-03-14T01:58:07;98777.47;;;11.82;73.58
74778;BME280;63298;53.164;8.610;2023-03-14T02:00:33;98773.88;;;11.82;74.15
74778;BME280;63298;53.164;8.610;2023-03-14T02:03:02;98770.59;;;11.80;73.42
74778;BME280;63298;53.164;8.610;2023-03-14T02:05:32;98767.25;;;11.83;73.68
74778;BME280;63298;53.164;8.610;2023-03-14T02:08:00;98783.28;;;11.81;73.46
74778;BME280;63298;53.164;8.610;2023-03-14T02:10:30;98772.00;;;11.77;73.64
74778;BME280;63298;53.164;8.610;2023-03-14T02:13:01;98775.59;;;11.78;73.61
74778;BME280;63298;53.164;8.610;2023-03-14T02:15:27;98783.88;;;11.78;73.85
74778;BME280;63298;53.164;8.610;2023-03-14T02:17:53;98796.28;;;11.80;73.56
74778;BME280;63298;53.164;8.610;2023-03-14T02:20:34;98804.28;;;11.82;73.75
74778;BME280;63298;53.164;8.610;2023-03-14T02:23:02;98802.63;;;11.81;73.27
74778;BME280;63298;53.164;8.610;2023-03-14T02:25:48;98799.03;;;11.80;74.09
74778;BME280;63298;53.164;8.610;2023-03-14T02:28:17;98800.47;;;11.78;74.45
74778;BME280;63298;53.164;8.610;2023-03-14T02:30:43;98812.84;;;11.80;73.73
74778;BME280;63298;53.164;8.610;2023-03-14T02:33:20;98803.72;;;11.80;73.96
74778;BME280;63298;53.164;8.610;2023-03-14T02:40:42;98798.81;;;11.77;74.65
74778;BME280;63298;53.164;8.610;2023-03-14T02:43:11;98799.88;;;11.81;73.98
74778;BME280;63298;53.164;8.610;2023-03-14T02:45:45;98792.94;;;11.83;74.37
74778;BME280;63298;53.164;8.610;2023-03-14T02:48:15;98790.41;;;11.87;73.88
74778;BME280;63298;53.164;8.610;2023-03-14T02:50:41;98792.56;;;11.90;73.86
74778;BME280;63298;53.164;8.610;2023-03-14T02:53:06;98795.31;;;11.90;74.02
74778;BME280;63298;53.164;8.610;2023-03-14T02:55:32;98781.50;;;11.90;74.23
74778;BME280;63298;53.164;8.610;2023-03-14T02:57:57;98786.22;;;11.89;74.53
74778;BME280;63298;53.164;8.610;2023-03-14T03:00:22;98783.75;;;11.88;73.88
74778;BME280;63298;53.164;8.610;2023-03-14T03:02:48;98789.22;;;11.93;74.20
74778;BME280;63298;53.164;8.610;2023-03-14T03:05:16;98782.13;;;11.87;74.52
74778;BME280;63298;53.164;8.610;2023-03-14T03:07:42;98793.22;;;11.82;74.91
74778;BME280;63298;53.164;8.610;2023-03-14T03:10:08;98778.81;;;11.85;74.30
74778;BME280;63298;53.164;8.610;2023-03-14T03:12:33;98780.47;;;11.86;74.85
74778;BME280;63298;53.164;8.610;2023-03-14T03:14:58;98784.34;;;11.85;75.03
74778;BME280;63298;53.164;8.610;2023-03-14T03:17:24;98778.94;;;11.75;76.10
74778;BME280;63298;53.164;8.610;2023-03-14T03:19:49;98775.06;;;11.76;76.05
74778;BME280;63298;53.164;8.610;2023-03-14T03:22:14;98743.19;;;11.59;75.64
74778;BME280;63298;53.164;8.610;2023-03-14T03:24:40;98763.50;;;11.74;75.19
74778;BME280;63298;53.164;8.610;2023-03-14T03:27:05;98762.94;;;11.72;75.43
74778;BME280;63298;53.164;8.610;2023-03-14T03:29:30;98772.63;;;11.74;75.49
74778;BME280;63298;53.164;8.610;2023-03-14T03:31:56;98769.63;;;11.65;76.35
74778;BME280;63298;53.164;8.610;2023-03-14T03:34:21;98771.63;;;11.60;76.00
74778;BME280;63298;53.164;8.610;2023-03-14T03:36:46;98774.72;;;11.58;76.03
74778;BME280;63298;53.164;8.610;2023-03-14T03:39:12;98767.53;;;11.57;76.39
74778;BME280;63298;53.164;8.610;2023-03-14T03:41:37;98795.50;;;11.51;77.24
74778;BME280;63298;53.164;8.610;2023-03-14T03:44:03;98788.97;;;11.42;76.87
74778;BME280;63298;53.164;8.610;2023-03-14T03:46:28;98796.47;;;11.36;76.35
74778;BME280;63298;53.164;8.610;2023-03-14T03:48:55;98797.97;;;11.29;76.79
74778;BME280;63298;53.164;8.610;2023-03-14T03:51:20;98781.69;;;11.27;76.74
74778;BME280;63298;53.164;8.610;2023-03-14T03:53:45;98783.63;;;11.26;76.77
74778;BME280;63298;53.164;8.610;2023-03-14T03:56:11;98788.91;;;11.23;77.08
74778;BME280;63298;53.164;8.610;2023-03-14T03:58:36;98777.16;;;11.12;77.00
74778;BME280;63298;53.164;8.610;2023-03-14T04:01:02;98787.59;;;11.15;76.34
74778;BME280;63298;53.164;8.610;2023-03-14T04:03:27;98778.31;;;11.06;76.94
74778;BME280;63298;53.164;8.610;2023-03-14T04:06:03;98778.31;;;11.06;78.13
74778;BME280;63298;53.164;8.610;2023-03-14T04:08:30;98782.44;;;11.09;76.89
74778;BME280;63298;53.164;8.610;2023-03-14T04:10:59;98771.44;;;11.04;77.43
74778;BME280;63298;53.164;8.610;2023-03-14T04:13:26;98776.66;;;11.05;77.14
74778;BME280;63298;53.164;8.610;2023-03-14T04:15:52;98765.91;;;11.04;76.78
74778;BME280;63298;53.164;8.610;2023-03-14T04:18:18;98764.28;;;11.03;77.49
74778;BME280;63298;53.164;8.610;2023-03-14T04:20:44;98750.56;;;10.93;77.36
74778;BME280;63298;53.164;8.610;2023-03-14T04:23:09;98759.69;;;10.93;77.29
74778;BME280;63298;53.164;8.610;2023-03-14T04:25:35;98755.25;;;10.92;77.59
74778;BME280;63298;53.164;8.610;2023-03-14T04:28:01;98752.28;;;10.89;78.03
74778;BME280;63298;53.164;8.610;2023-03-14T04:30:26;98752.56;;;10.87;78.19
74778;BME280;63298;53.164;8.610;2023-03-14T04:32:51;98740.69;;;10.87;78.14
74778;BME280;63298;53.164;8.610;2023-03-14T04:35:17;98729.75;;;10.76;78.14
74778;BME280;63298;53.164;8.610;2023-03-14T04:37:42;98740.19;;;10.85;77.97
74778;BME280;63298;53.164;8.610;2023-03-14T04:40:08;98744.56;;;10.86;78.23
74778;BME280;63298;53.164;8.610;2023-03-14T04:42:33;98754.50;;;10.87;78.40
74778;BME280;63298;53.164;8.610;2023-03-14T04:44:59;98746.56;;;10.80;78.33
74778;BME280;63298;53.164;8.610;2023-03-14T04:47:24;98756.72;;;10.85;78.48
74778;BME280;63298;53.164;8.610;2023-03-14T04:49:49;98759.50;;;10.85;77.75
74778;BME280;63298;53.164;8.610;2023-03-14T04:52:15;98756.47;;;10.81;78.55
74778;BME280;63298;53.164;8.610;2023-03-14T04:54:40;98764.47;;;10.82;78.65
74778;BME280;63298;53.164;8.610;2023-03-14T04:57:05;98773.06;;;10.76;79.02
74778;BME280;63298;53.164;8.610;2023-03-14T04:59:30;98757.47;;;10.61;79.67
74778;BME280;63298;53.164;8.610;2023-03-14T05:01:56;98769.09;;;10.58;79.95
74778;BME280;63298;53.164;8.610;2023-03-14T05:04:21;98755.53;;;10.62;79.17
74778;BME280;63298;53.164;8.610;2023-03-14T05:06:46;98763.53;;;10.63;80.06
74778;BME280;63298;53.164;8.610;2023-03-14T05:09:12;98761.38;;;10.60;79.42
74778;BME280;63298;53.164;8.610;2023-03-14T05:11:37;98760.22;;;10.61;79.37
74778;BME280;63298;53.164;8.610;2023-03-14T05:14:02;98750.91;;;10.57;78.87
74778;BME280;63298;53.164;8.610;2023-03-14T05:16:28;98748.38;;;10.61;78.62
74778;BME280;63298;53.164;8.610;2023-03-14T05:18:53;98754.19;;;10.59;79.16
74778;BME280;63298;53.164;8.610;2023-03-14T05:21:18;98740.16;;;10.56;78.63
74778;BME280;63298;53.164;8.610;2023-03-14T05:23:44;98745.38;;;10.57;78.63
74778;BME280;63298;53.164;8.610;2023-03-14T05:26:09;98743.75;;;10.51;77.82
74778;BME280;63298;53.164;8.610;2023-03-14T05:28:35;98747.06;;;10.53;78.15
74778;BME280;63298;53.164;8.610;2023-03-14T05:31:02;98754.25;;;10.54;78.51
74778;BME280;63298;53.164;8.610;2023-03-14T05:33:30;98759.75;;;10.54;78.31
74778;BME280;63298;53.164;8.610;2023-03-14T05:35:56;98735.56;;;10.41;77.88
74778;BME280;63298;53.164;8.610;2023-03-14T05:38:21;98753.50;;;10.44;78.47
74778;BME280;63298;53.164;8.610;2023-03-14T05:40:46;98740.50;;;10.49;77.71
74778;BME280;63298;53.164;8.610;2023-03-14T05:43:12;98744.06;;;10.50;77.54
74778;BME280;63298;53.164;8.610;2023-03-14T05:45:37;98741.06;;;10.46;78.02
74778;BME280;63298;53.164;8.610;2023-03-14T05:48:02;98733.38;;;10.43;78.11
74778;BME280;63298;53.164;8.610;2023-03-14T05:50:28;98734.47;;;10.42;78.30
74778;BME280;63298;53.164;8.610;2023-03-14T05:52:53;98743.28;;;10.44;78.07
74778;BME280;63298;53.164;8.610;2023-03-14T05:55:18;98738.59;;;10.45;77.90
74778;BME280;63298;53.164;8.610;2023-03-14T05:57:44;98746.84;;;10.50;77.97
74778;BME280;63298;53.164;8.610;2023-03-14T06:00:10;98740.50;;;10.49;77.95
74778;BME280;63298;53.164;8.610;2023-03-14T06:02:35;98735.81;;;10.50;78.40
74778;BME280;63298;53.164;8.610;2023-03-14T06:05:00;98744.31;;;10.53;77.42
74778;BME280;63298;53.164;8.610;2023-03-14T06:07:26;98738.00;;;10.48;77.87
74778;BME280;63298;53.164;8.610;2023-03-14T06:09:51;98738.91;;;10.38;77.88
74778;BME280;63298;53.164;8.610;2023-03-14T06:12:16;98738.84;;;10.48;77.26
74778;BME280;63298;53.164;8.610;2023-03-14T06:14:42;98736.13;;;10.43;78.15
74778;BME280;63298;53.164;8.610;2023-03-14T06:17:07;98741.06;;;10.46;77.54
74778;BME280;63298;53.164;8.610;2023-03-14T06:19:32;98744.63;;;10.47;77.74
74778;BME280;63298;53.164;8.610;2023-03-14T06:21:58;98735.84;;;10.45;77.82
74778;BME280;63298;53.164;8.610;2023-03-14T06:24:23;98732.03;;;10.41;77.74
74778;BME280;63298;53.164;8.610;2023-03-14T06:26:48;98738.84;;;10.48;77.92
74778;BME280;63298;53.164;8.610;2023-03-14T06:29:14;98746.56;;;10.46;78.00
74778;BME280;63298;53.164;8.610;2023-03-14T06:31:39;98747.38;;;10.47;78.60
74778;BME280;63298;53.164;8.610;2023-03-14T06:34:05;98745.19;;;10.49;77.99
74778;BME280;63298;53.164;8.610;2023-03-14T06:36:30;98733.31;;;10.48;77.59
74778;BME280;63298;53.164;8.610;2023-03-14T06:38:55;98731.41;;;10.49;78.07
74778;BME280;63298;53.164;8.610;2023-03-14T06:41:21;98747.91;;;10.54;77.38
74778;BME280;63298;53.164;8.610;2023-03-14T06:43:46;98730.56;;;10.48;77.06
74778;BME280;63298;53.164;8.610;2023-03-14T06:46:11;98745.47;;;10.47;78.08
74778;BME280;63298;53.164;8.610;2023-03-14T06:48:36;98734.97;;;10.49;77.71
74778;BME280;63298;53.164;8.610;2023-03-14T06:51:02;98743.75;;;10.51;77.43
74778;BME280;63298;53.164;8.610;2023-03-14T06:53:27;98726.16;;;10.47;76.71
74778;BME280;63298;53.164;8.610;2023-03-14T06:55:53;98738.84;;;10.48;77.42
74778;BME280;63298;53.164;8.610;2023-03-14T06:58:18;98725.09;;;10.43;77.50
74778;BME280;63298;53.164;8.610;2023-03-14T07:00:43;98748.44;;;10.56;77.72
74778;BME280;63298;53.164;8.610;2023-03-14T07:03:10;98733.28;;;10.53;77.78
74778;BME280;63298;53.164;8.610;2023-03-14T07:05:35;98739.31;;;10.60;76.83
74778;BME280;63298;53.164;8.610;2023-03-14T07:08:00;98743.94;;;10.65;76.83
74778;BME280;63298;53.164;8.610;2023-03-14T07:10:26;98747.50;;;10.70;77.23
74778;BME280;63298;53.164;8.610;2023-03-14T07:12:51;98740.31;;;10.69;76.58
74778;BME280;63298;53.164;8.610;2023-03-14T07:15:16;98747.97;;;10.77;77.04
74778;BME280;63298;53.164;8.610;2023-03-14T07:17:42;98751.81;;;10.76;77.34
74778;BME280;63298;53.164;8.610;2023-03-14T07:20:08;98732.56;;;10.71;76.83
74778;BME280;63298;53.164;8.610;2023-03-14T07:22:34;98753.09;;;10.89;76.73
74778;BME280;63298;53.164;8.610;2023-03-14T07:24:59;98755.25;;;10.92;76.77
74778;BME280;63298;53.164;8.610;2023-03-14T07:27:24;98751.41;;;10.93;77.36
74778;BME280;63298;53.164;8.610;2023-03-14T07:29:50;98746.94;;;10.97;76.47
74778;BME280;63298;53.164;8.610;2023-03-14T07:32:15;98752.00;;;10.90;76.69
74778;BME280;63298;53.164;8.610;2023-03-14T07:34:41;98751.63;;;10.97;77.10
74778;BME280;63298;53.164;8.610;2023-03-14T07:37:07;98757.69;;;10.99;76.66
74778;BME280;63298;53.164;8.610;2023-03-14T07:39:32;98753.78;;;11.05;76.70
74778;BME280;63298;53.164;8.610;2023-03-14T07:41:57;98749.88;;;11.06;76.31
74778;BME280;63298;53.164;8.610;2023-03-14T07:44:23;98753.47;;;11.06;76.41
74778;BME280;63298;53.164;8.610;2023-03-14T07:46:48;98756.78;;;11.08;76.50
74778;BME280;63298;53.164;8.610;2023-03-14T07:49:13;98759.44;;;11.18;76.21
74778;BME280;63298;53.164;8.610;2023-03-14T07:51:39;98769.59;;;11.23;76.11
74778;BME280;63298;53.164;8.610;2023-03-14T07:54:04;98771.81;;;11.21;76.21
74778;BME280;63298;53.164;8.610;2023-03-14T07:56:30;98765.00;;;11.13;76.64
74778;BME280;63298;53.164;8.610;2023-03-14T07:58:56;98768.59;;;11.14;76.69
74778;BME280;63298;53.164;8.610;2023-03-14T08:01:23;98777.38;;;11.16;77.04
74778;BME280;63298;53.164;8.610;2023-03-14T08:03:48;98769.69;;;11.13;76.64
74778;BME280;63298;53.164;8.610;2023-03-14T08:06:13;98781.84;;;11.12;76.85
74778;BME280;63298;53.164;8.610;2023-03-14T08:08:39;98785.13;;;11.14;76.86
74778;BME280;63298;53.164;8.610;2023-03-14T08:11:05;98776.69;;;11.00;76.83
74778;BME280;63298;53.164;8.610;2023-03-14T08:13:31;98788.59;;;10.96;77.55
74778;BME280;63298;53.164;8.610;2023-03-14T08:15:56;98776.50;;;10.92;77.34
74778;BME280;63298;53.164;8.610;2023-03-14T08:18:21;98773.19;;;10.95;76.94
74778;BME280;63298;53.164;8.610;2023-03-14T08:20:47;98790.25;;;10.97;77.36
74778;BME280;63298;53.164;8.610;2023-03-14T08:23:12;98790.25;;;10.97;77.88
74778;BME280;63298;53.164;8.610;2023-03-14T08:25:38;98795.22;;;11.00;77.95
74778;BME280;63298;53.164;8.610;2023-03-14T08:28:03;98801.88;;;10.94;78.08
74778;BME280;63298;53.164;8.610;2023-03-14T08:30:28;98818.44;;;10.94;78.67
74778;BME280;63298;53.164;8.610;2023-03-14T08:32:56;98803.63;;;10.85;79.37
74778;BME280;63298;53.164;8.610;2023-03-14T08:35:21;98806.16;;;10.76;79.52
74778;BME280;63298;53.164;8.610;2023-03-14T08:37:47;98813.88;;;10.79;79.68
74778;BME280;63298;53.164;8.610;2023-03-14T08:40:12;98806.19;;;10.71;79.93
74778;BME280;63298;53.164;8.610;2023-03-14T08:42:39;98818.56;;;10.78;79.46
74778;BME280;63298;53.164;8.610;2023-03-14T08:45:06;98836.78;;;10.74;79.91
74778;BME280;63298;53.164;8.610;2023-03-14T08:47:32;98843.44;;;10.68;79.71
74778;BME280;63298;53.164;8.610;2023-03-14T08:49:57;98828.75;;;10.44;80.42
74778;BME280;63298;53.164;8.610;2023-03-14T08:52:23;98895.94;;;10.53;80.01
74778;BME280;63298;53.164;8.610;2023-03-14T08:54:48;98902.13;;;10.30;76.52
74778;BME280;63298;53.164;8.610;2023-03-14T08:57:14;98905.69;;;9.41;74.05
74778;BME280;63298;53.164;8.610;2023-03-14T08:59:40;98915.53;;;8.56;75.05
74778;BME280;63298;53.164;8.610;2023-03-14T09:02:05;98940.88;;;8.11;76.60
74778;BME280;63298;53.164;8.610;2023-03-14T09:04:31;98929.69;;;7.70;78.09
74778;BME280;63298;53.164;8.610;2023-03-14T09:06:57;98968.59;;;7.62;78.70
74778;BME280;63298;53.164;8.610;2023-03-14T09:09:26;98977.25;;;7.12;79.04
74778;BME280;63298;53.164;8.610;2023-03-14T09:11:52;98973.28;;;6.98;80.10
74778;BME280;63298;53.164;8.610;2023-03-14T09:14:17;98984.09;;;6.83;80.44
74778;BME280;63298;53.164;8.610;2023-03-14T09:16:43;99001.47;;;6.67;80.85
74778;BME280;63298;53.164;8.610;2023-03-14T09:19:08;99018.28;;;6.54;80.78
74778;BME280;63298;53.164;8.610;2023-03-14T09:21:34;99041.88;;;6.55;80.07
74778;BME280;63298;53.164;8.610;2023-03-14T09:23:59;99074.41;;;6.29;79.58
74778;BME280;63298;53.164;8.610;2023-03-14T09:26:25;99077.00;;;6.19;80.50
74778;BME280;63298;53.164;8.610;2023-03-14T09:28:50;99049.66;;;5.86;80.45
74778;BME280;63298;53.164;8.610;2023-03-14T09:31:15;99076.94;;;5.81;80.37
74778;BME280;63298;53.164;8.610;2023-03-14T09:33:41;99109.69;;;5.76;80.38
74778;BME280;63298;53.164;8.610;2023-03-14T09:36:07;99101.50;;;5.31;80.61
74778;BME280;63298;53.164;8.610;2023-03-14T09:38:32;99134.09;;;5.32;80.48
74778;BME280;63298;53.164;8.610;2023-03-14T09:41:00;99139.41;;;5.10;80.77
74778;BME280;63298;53.164;8.610;2023-03-14T09:43:31;99146.19;;;5.08;80.70
74778;BME280;63298;53.164;8.610;2023-03-14T09:46:00;99156.38;;;4.72;80.87
74778;BME280;63298;53.164;8.610;2023-03-14T09:48:29;99155.44;;;4.67;80.56
74778;BME280;63298;53.164;8.610;2023-03-14T09:50:58;99188.56;;;4.70;81.23
74778;BME280;63298;53.164;8.610;2023-03-14T09:53:33;99169.81;;;4.39;81.20
74778;BME280;63298;53.164;8.610;2023-03-14T09:56:00;99187.03;;;4.40;81.25
74778;BME280;63298;53.164;8.610;2023-03-14T09:58:26;99190.34;;;4.30;83.69
74778;BME280;63298;53.164;8.610;2023-03-14T10:00:54;99215.16;;;4.52;82.25
74778;BME280;63298;53.164;8.610;2023-03-14T10:05:52;99229.50;;;4.59;82.68
74778;BME280;63298;53.164;8.610;2023-03-14T10:08:18;99257.31;;;4.67;82.53
74778;BME280;63298;53.164;8.610;2023-03-14T10:10:43;99232.25;;;4.70;82.77
74778;BME280;63298;53.164;8.610;2023-03-14T10:13:18;99267.38;;;4.78;82.22
74778;BME280;63298;53.164;8.610;2023-03-14T10:15:51;99291.97;;;4.78;83.74
74778;BME280;63298;53.164;8.610;2023-03-14T10:18:16;99285.47;;;4.68;83.24
74778;BME280;63298;53.164;8.610;2023-03-14T10:20:49;99295.53;;;4.79;82.93
74778;BME280;63298;53.164;8.610;2023-03-14T10:23:23;99308.63;;;4.77;82.36
74778;BME280;63298;53.164;8.610;2023-03-14T10:28:31;99334.16;;;4.83;83.34
74778;BME280;63298;53.164;8.610;2023-03-14T10:30:57;99318.34;;;4.85;82.58
74778;BME280;63298;53.164;8.610;2023-03-14T10:33:23;99356.72;;;5.13;81.72
74778;BME280;63298;53.164;8.610;2023-03-14T10:36:04;99372.75;;;5.21;81.67
74778;BME280;63298;53.164;8.610;2023-03-14T10:38:35;99362.19;;;5.13;82.04
74778;BME280;63298;53.164;8.610;2023-03-14T10:41:05;99378.34;;;5.03;81.90
74778;BME280;63298;53.164;8.610;2023-03-14T10:43:40;99398.53;;;5.25;81.50
74778;BME280;63298;53.164;8.610;2023-03-14T10:46:14;99401.63;;;5.29;81.04
74778;BME280;63298;53.164;8.610;2023-03-14T10:48:40;99388.94;;;5.22;81.16
74778;BME280;63298;53.164;8.610;2023-03-14T10:53:38;99402.00;;;5.32;80.38
74778;BME280;63298;53.164;8.610;2023-03-14T10:56:04;99398.91;;;5.17;81.11
74778;BME280;63298;53.164;8.610;2023-03-14T10:58:33;99380.97;;;5.21;81.20
74778;BME280;63298;53.164;8.610;2023-03-14T11:03:43;99424.56;;;5.51;81.11
74778;BME280;63298;53.164;8.610;2023-03-14T11:09:32;99423.13;;;5.48;79.98
74778;BME280;63298;53.164;8.610;2023-03-14T11:14:52;99445.84;;;5.60;79.50
74778;BME280;63298;53.164;8.610;2023-03-14T11:21:02;99453.78;;;5.85;79.67
74778;BME280;63298;53.164;8.610;2023-03-14T11:23:41;99471.03;;;5.97;78.68
74778;BME280;63298;53.164;8.610;2023-03-14T11:26:31;99484.25;;;6.00;78.35
74778;BME280;63298;53.164;8.610;2023-03-14T11:29:07;99476.16;;;6.05;76.36
74778;BME280;63298;53.164;8.610;2023-03-14T11:31:35;99473.09;;;5.90;76.74
74778;BME280;63298;53.164;8.610;2023-03-14T11:34:34;99509.44;;;6.14;77.10
74778;BME280;63298;53.164;8.610;2023-03-14T11:37:06;99523.25;;;6.07;77.70
74778;BME280;63298;53.164;8.610;2023-03-14T11:40:16;99529.72;;;6.01;77.91
74778;BME280;63298;53.164;8.610;2023-03-14T11:42:44;99535.78;;;5.92;77.31
74778;BME280;63298;53.164;8.610;2023-03-14T11:45:19;99523.53;;;5.94;78.73
74778;BME280;63298;53.164;8.610;2023-03-14T11:47:55;99523.03;;;6.09;78.73
74778;BME280;63298;53.164;8.610;2023-03-14T11:50:24;99536.94;;;6.19;78.83
74778;BME280;63298;53.164;8.610;2023-03-14T11:53:09;99555.47;;;6.40;77.96
74778;BME280;63298;53.164;8.610;2023-03-14T11:55:40;99546.66;;;6.38;77.65
74778;BME280;63298;53.164;8.610;2023-03-14T11:58:22;99562.81;;;6.51;77.84
74778;BME280;63298;53.164;8.610;2023-03-14T12:00:51;99556.38;;;6.58;77.61
74778;BME280;63298;53.164;8.610;2023-03-14T12:03:49;99600.28;;;6.74;76.89
74778;BME280;63298;53.164;8.610;2023-03-14T12:09:12;99597.25;;;6.47;73.60
74778;BME280;63298;53.164;8.610;2023-03-14T12:11:56;99609.66;;;6.50;73.45
74778;BME280;63298;53.164;8.610;2023-03-14T12:14:32;99647.50;;;6.53;69.52
74778;BME280;63298;53.164;8.610;2023-03-14T12:19:32;99649.28;;;6.47;67.52
74778;BME280;63298;53.164;8.610;2023-03-14T12:22:08;99650.34;;;6.46;67.04
74778;BME280;63298;53.164;8.610;2023-03-14T12:24:45;99662.16;;;6.59;65.62
74778;BME280;63298;53.164;8.610;2023-03-14T12:27:13;99677.25;;;6.73;66.18
74778;BME280;63298;53.164;8.610;2023-03-14T12:30:00;99675.84;;;6.59;63.41
74778;BME280;63298;53.164;8.610;2023-03-14T12:32:26;99652.88;;;6.48;63.44
74778;BME280;63298;53.164;8.610;2023-03-14T12:34:51;99679.31;;;6.42;61.33
74778;BME280;63298;53.164;8.610;2023-03-14T12:48:03;99749.44;;;7.02;56.07
74778;BME280;63298;53.164;8.610;2023-03-14T12:50:45;99769.72;;;6.89;54.41
74778;BME280;63298;53.164;8.610;2023-03-14T12:58:48;99759.56;;;7.01;55.02
74778;BME280;63298;53.164;8.610;2023-03-14T13:01:19;99765.88;;;7.02;56.98
74778;BME280;63298;53.164;8.610;2023-03-14T13:03:46;99773.16;;;6.96;56.83
74778;BME280;63298;53.164;8.610;2023-03-14T13:06:13;99760.81;;;6.70;54.85
74778;BME280;63298;53.164;8.610;2023-03-14T13:08:58;99764.69;;;6.86;57.80
74778;BME280;63298;53.164;8.610;2023-03-14T13:11:43;99793.06;;;6.91;58.22
74778;BME280;63298;53.164;8.610;2023-03-14T13:14:10;99786.41;;;6.76;57.22
74778;BME280;63298;53.164;8.610;2023-03-14T13:16:35;99823.81;;;6.93;58.13
74778;BME280;63298;53.164;8.610;2023-03-14T13:19:13;99793.06;;;6.68;57.31
74778;BME280;63298;53.164;8.610;2023-03-14T13:21:42;99815.47;;;6.77;56.93
74778;BME280;63298;53.164;8.610;2023-03-14T13:24:23;99837.41;;;6.88;55.56
74778;BME280;63298;53.164;8.610;2023-03-14T13:26:52;99833.47;;;6.84;56.23
74778;BME280;63298;53.164;8.610;2023-03-14T13:31:50;99874.94;;;6.65;53.24
74778;BME280;63298;53.164;8.610;2023-03-14T13:34:17;99843.97;;;6.76;56.30
74778;BME280;63298;53.164;8.610;2023-03-14T13:36:43;99882.22;;;6.82;53.42
74778;BME280;63298;53.164;8.610;2023-03-14T13:39:26;99880.09;;;6.84;52.45
74778;BME280;63298;53.164;8.610;2023-03-14T13:41:52;99863.72;;;6.66;52.30
74778;BME280;63298;53.164;8.610;2023-03-14T13:44:26;99898.22;;;6.85;53.73
74778;BME280;63298;53.164;8.610;2023-03-14T13:46:57;99892.69;;;6.74;52.21
74778;BME280;63298;53.164;8.610;2023-03-14T13:49:25;99890.41;;;6.59;50.89
74778;BME280;63298;53.164;8.610;2023-03-14T13:51:51;99926.56;;;6.91;52.76
74778;BME280;63298;53.164;8.610;2023-03-14T13:54:19;99914.66;;;7.09;52.24
74778;BME280;63298;53.164;8.610;2023-03-14T13:56:46;99903.34;;;7.05;49.44
74778;BME280;63298;53.164;8.610;2023-03-14T13:59:26;99928.50;;;7.14;50.54